createdAt,value
2023-04-12T00:00:10.501Z,95892.38
2023-04-12T00:02:37.633Z,95884.09
2023-04-12T00:05:04.583Z,95887.88
2023-04-12T00:07:31.318Z,95877.94
2023-04-12T00:09:57.809Z,95873.66
2023-04-12T00:12:24.282Z,95867.13
2023-04-12T00:14:51.219Z,95863.19
2023-04-12T00:17:19.178Z,95867.81
2023-04-12T00:19:46.010Z,95874.03
2023-04-12T00:22:12.505Z,95860.06
2023-04-12T00:24:40.234Z,95855.31
2023-04-12T00:27:06.974Z,95851.13
2023-04-12T00:29:33.625Z,95851.25
2023-04-12T00:32:01.673Z,95850.41
2023-04-12T00:34:28.786Z,95845.72
2023-04-12T00:36:55.923Z,95839.28
2023-04-12T00:39:22.765Z,95817.56
2023-04-12T00:41:49.255Z,95821.75
2023-04-12T00:44:18.228Z,95825.97
2023-04-12T00:46:48.118Z,95823.53
2023-04-12T00:49:15.575Z,95815.97
2023-04-12T00:51:42.419Z,95814.44
2023-04-12T00:54:08.950Z,95817.19
2023-04-12T00:56:36.952Z,95816.56
2023-04-12T00:59:03.513Z,95809.03
2023-04-12T01:01:32.101Z,95802.56
2023-04-12T01:04:01.611Z,95798.31
2023-04-12T01:06:41.543Z,95786.63
2023-04-12T01:09:27.386Z,95801.50
2023-04-12T01:12:16.172Z,95800.56
2023-04-12T01:14:45.814Z,95799.81
2023-04-12T01:17:14.485Z,95801.69
2023-04-12T01:19:54.220Z,95787.25
2023-04-12T01:22:43.552Z,95781.75
2023-04-12T01:48:52.842Z,95744.53
2023-04-12T01:51:48.600Z,95741.84
2023-04-12T01:54:19.356Z,95738.03
2023-04-12T01:56:47.306Z,95733.38
2023-04-12T01:59:15.621Z,95738.59
2023-04-12T02:01:43.175Z,95736.09
2023-04-12T02:04:10.808Z,95741.88
2023-04-12T02:06:38.064Z,95736.56
2023-04-12T02:09:07.905Z,95729.06
2023-04-12T02:11:34.804Z,95731.66
2023-04-12T02:14:01.351Z,95736.88
2023-04-12T02:16:29.390Z,95734.50
2023-04-12T02:18:58.930Z,95735.31
2023-04-12T02:21:26.420Z,95729.25
2023-04-12T02:23:52.892Z,95725.00
2023-04-12T02:26:19.412Z,95723.63
2023-04-12T02:28:46.244Z,95724.19
2023-04-12T02:31:13.308Z,95718.03
2023-04-12T02:33:42.608Z,95718.16
2023-04-12T02:36:10.306Z,95711.53
2023-04-12T02:38:36.779Z,95705.09
2023-04-12T02:41:03.247Z,95703.22
2023-04-12T02:43:29.736Z,95701.84
2023-04-12T02:45:56.237Z,95703.78
2023-04-12T02:48:22.743Z,95701.72
2023-04-12T02:50:49.245Z,95699.00
2023-04-12T02:53:16.041Z,95693.06
2023-04-12T02:55:42.535Z,95692.59
2023-04-12T02:58:09.011Z,95686.66
2023-04-12T03:00:35.494Z,95684.03
2023-04-12T03:03:03.797Z,95685.31
2023-04-12T03:05:30.583Z,95683.44
2023-04-12T03:07:57.065Z,95686.25
2023-04-12T03:10:23.630Z,95683.75
2023-04-12T03:12:50.202Z,95669.59
2023-04-12T03:15:17.974Z,95661.50
2023-04-12T03:17:45.124Z,95666.78
2023-04-12T03:20:12.015Z,95660.41
2023-04-12T03:22:38.568Z,95663.31
2023-04-12T03:25:05.556Z,95664.13
2023-04-12T03:27:32.244Z,95657.75
2023-04-12T03:29:58.718Z,95663.03
2023-04-12T03:32:25.735Z,95656.69
2023-04-12T03:34:52.349Z,95656.94
2023-04-12T03:37:19.012Z,95653.00
2023-04-12T03:39:48.192Z,95650.97
2023-04-12T03:42:29.447Z,95647.66
2023-04-12T03:44:58.702Z,95652.16
2023-04-12T03:47:25.511Z,95640.69
2023-04-12T03:50:10.371Z,95640.75
2023-04-12T03:52:37.932Z,95640.66
2023-04-12T03:55:06.221Z,95639.78
2023-04-12T03:57:32.689Z,95631.78
2023-04-12T03:59:59.267Z,95634.72
2023-04-12T04:02:26.941Z,95632.13
2023-04-12T04:04:53.576Z,95639.09
2023-04-12T04:07:20.083Z,95638.06
2023-04-12T04:09:46.532Z,95635.84
2023-04-12T04:12:13.073Z,95632.97
2023-04-12T04:14:39.562Z,95637.03
2023-04-12T04:17:06.049Z,95644.47
2023-04-12T04:19:32.503Z,95642.34
2023-04-12T04:21:59.206Z,95638.06
2023-04-12T04:24:25.767Z,95635.94
2023-04-12T04:26:54.467Z,95632.53
2023-04-12T04:29:20.982Z,95642.47
2023-04-12T04:31:47.690Z,95633.78
2023-04-12T04:34:14.240Z,95630.56
2023-04-12T04:36:41.650Z,95635.28
2023-04-12T04:39:08.234Z,95628.84
2023-04-12T04:41:39.355Z,95627.28
2023-04-12T04:44:10.512Z,95617.09
2023-04-12T04:46:37.999Z,95618.84
2023-04-12T04:49:05.442Z,95622.25
2023-04-12T04:51:32.377Z,95625.38
2023-04-12T04:53:59.274Z,95625.31
2023-04-12T04:56:26.318Z,95626.91
2023-04-12T04:58:54.094Z,95627.41
2023-04-12T05:01:26.015Z,95613.44
2023-04-12T05:03:52.726Z,95614.91
2023-04-12T05:06:19.229Z,95613.56
2023-04-12T05:08:45.839Z,95616.44
2023-04-12T05:11:12.329Z,95623.97
2023-04-12T05:13:38.807Z,95626.63
2023-04-12T05:16:08.607Z,95626.63
2023-04-12T05:18:35.314Z,95623.97
2023-04-12T05:21:02.910Z,95624.34
2023-04-12T05:23:29.627Z,95622.59
2023-04-12T05:25:56.246Z,95620.34
2023-04-12T05:28:22.832Z,95616.53
2023-04-12T05:30:49.378Z,95613.25
2023-04-12T05:33:15.889Z,95610.16
2023-04-12T05:35:42.491Z,95604.78
2023-04-12T05:38:09.094Z,95612.78
2023-04-12T05:40:36.532Z,95614.50
2023-04-12T05:43:03.590Z,95613.88
2023-04-12T05:45:30.052Z,95616.19
2023-04-12T05:47:56.583Z,95609.84
2023-04-12T05:50:23.228Z,95608.69
2023-04-12T05:52:50.817Z,95599.47
2023-04-12T05:55:18.475Z,95593.16
2023-04-12T05:57:45.680Z,95592.94
2023-04-12T06:00:17.508Z,95589.25
2023-04-12T06:02:48.186Z,95589.31
2023-04-12T06:05:15.238Z,95594.66
2023-04-12T06:07:48.980Z,95580.81
2023-04-12T06:10:17.362Z,95580.59
2023-04-12T06:12:44.364Z,95569.66
2023-04-12T06:15:11.052Z,95566.25
2023-04-12T06:17:38.047Z,95565.75
2023-04-12T06:20:10.768Z,95565.06
2023-04-12T06:22:37.731Z,95560.03
2023-04-12T06:25:04.774Z,95548.44
2023-04-12T06:27:31.521Z,95555.13
2023-04-12T06:29:58.169Z,95546.34
2023-04-12T06:32:24.944Z,95555.22
2023-04-12T06:34:51.633Z,95539.00
2023-04-12T06:37:18.248Z,95542.03
2023-04-12T06:39:44.736Z,95535.16
2023-04-12T06:42:13.242Z,95531.13
2023-04-12T06:44:41.303Z,95534.66
2023-04-12T06:47:07.891Z,95520.91
2023-04-12T06:49:34.496Z,95527.34
2023-04-12T06:52:01.164Z,95519.53
2023-04-12T06:54:27.658Z,95520.94
2023-04-12T06:56:54.119Z,95507.91
2023-04-12T06:59:20.907Z,95507.44
2023-04-12T07:01:47.488Z,95499.69
2023-04-12T07:04:14.071Z,95507.25
2023-04-12T07:06:40.650Z,95484.91
2023-04-12T07:09:07.146Z,95489.75
2023-04-12T07:11:33.702Z,95485.00
2023-04-12T07:14:00.330Z,95484.13
2023-04-12T07:16:27.956Z,95479.78
2023-04-12T07:18:54.552Z,95478.16
2023-04-12T07:21:21.093Z,95479.75
2023-04-12T07:23:51.115Z,95475.00
2023-04-12T07:26:18.988Z,95467.06
2023-04-12T07:28:45.460Z,95470.22
2023-04-12T07:31:11.929Z,95464.09
2023-04-12T07:33:41.433Z,95466.59
2023-04-12T07:36:09.496Z,95452.50
2023-04-12T07:38:36.232Z,95449.41
2023-04-12T07:41:02.846Z,95445.47
2023-04-12T07:43:29.332Z,95443.59
2023-04-12T07:45:56.397Z,95432.28
2023-04-12T07:48:23.011Z,95435.56
2023-04-12T07:50:49.554Z,95435.34
2023-04-12T07:53:23.053Z,95426.94
2023-04-12T07:55:50.389Z,95419.84
2023-04-12T07:58:17.355Z,95418.59
2023-04-12T08:00:44.408Z,95427.66
2023-04-12T08:03:15.275Z,95440.09
2023-04-12T08:05:42.251Z,95433.47
2023-04-12T08:08:11.883Z,95426.41
2023-04-12T08:10:38.889Z,95434.22
2023-04-12T08:13:05.918Z,95431.53
2023-04-12T08:15:32.548Z,95429.97
2023-04-12T08:17:59.173Z,95421.78
2023-04-12T08:20:25.958Z,95423.72
2023-04-12T08:22:52.804Z,95427.06
2023-04-12T08:25:19.406Z,95407.97
2023-04-12T08:27:46.038Z,95403.09
2023-04-12T08:30:13.071Z,95407.25
2023-04-12T08:32:39.628Z,95397.91
2023-04-12T08:35:06.586Z,95398.03
2023-04-12T08:37:33.304Z,95403.22
2023-04-12T08:40:01.053Z,95396.25
2023-04-12T08:42:28.114Z,95388.94
2023-04-12T08:44:54.667Z,95388.88
2023-04-12T08:47:21.410Z,95368.69
2023-04-12T08:49:47.892Z,95369.59
2023-04-12T08:52:14.462Z,95367.84
2023-04-12T08:54:41.001Z,95374.34
2023-04-12T08:57:08.322Z,95362.84
2023-04-12T08:59:37.225Z,95352.06
2023-04-12T09:02:03.831Z,95353.97
2023-04-12T09:04:30.584Z,95353.47
2023-04-12T09:06:57.266Z,95345.91
2023-04-12T09:09:42.096Z,95350.72
2023-04-12T09:12:09.266Z,95359.25
2023-04-12T09:14:35.906Z,95353.63
2023-04-12T09:17:02.451Z,95355.75
2023-04-12T09:19:35.956Z,95360.84
2023-04-12T09:22:02.915Z,95349.16
2023-04-12T09:24:29.731Z,95344.72
2023-04-12T09:27:07.249Z,95344.91
2023-04-12T09:29:34.390Z,95338.13
2023-04-12T09:32:06.158Z,95347.41
2023-04-12T09:34:33.271Z,95342.34
2023-04-12T09:36:59.820Z,95338.94
2023-04-12T09:39:33.722Z,95337.69
2023-04-12T09:42:14.908Z,95335.69
2023-04-12T09:44:44.995Z,95332.53
2023-04-12T09:47:11.522Z,95333.50
2023-04-12T09:49:41.669Z,95328.66
2023-04-12T09:52:08.777Z,95319.38
2023-04-12T09:54:39.510Z,95319.56
2023-04-12T09:57:07.777Z,95320.16
2023-04-12T09:59:36.325Z,95324.16
2023-04-12T10:02:04.564Z,95314.03
2023-04-12T10:04:32.422Z,95310.91
2023-04-12T10:07:01.179Z,95303.88
2023-04-12T10:09:28.676Z,95303.59
2023-04-12T10:11:55.849Z,95303.53
2023-04-12T10:14:22.630Z,95293.16
2023-04-12T10:16:49.150Z,95295.34
2023-04-12T10:19:16.545Z,95286.72
2023-04-12T10:21:43.100Z,95283.31
2023-04-12T10:24:09.697Z,95277.88
2023-04-12T10:26:41.764Z,95280.59
2023-04-12T10:29:27.876Z,95280.53
2023-04-12T10:31:58.340Z,95288.19
2023-04-12T10:34:31.411Z,95284.28
2023-04-12T10:36:59.202Z,95282.31
2023-04-12T10:39:36.910Z,95273.72
2023-04-12T10:42:27.590Z,95276.63
2023-04-12T10:44:55.171Z,95280.88
2023-04-12T10:47:40.290Z,95272.25
2023-04-12T10:50:20.403Z,95270.53
2023-04-12T10:53:06.906Z,95274.00
2023-04-12T10:55:33.612Z,95278.03
2023-04-12T10:58:00.099Z,95272.22
2023-04-12T11:00:46.592Z,95273.31
2023-04-12T11:03:14.121Z,95265.75
2023-04-12T11:06:06.372Z,95263.97
2023-04-12T11:08:42.433Z,95269.47
2023-04-12T11:11:18.851Z,95274.59
2023-04-12T11:13:46.392Z,95269.75
2023-04-12T11:16:13.103Z,95261.19
2023-04-12T11:18:40.033Z,95265.03
2023-04-12T11:21:06.959Z,95261.66
2023-04-12T11:23:33.447Z,95258.75
2023-04-12T11:25:59.972Z,95255.59
2023-04-12T11:28:29.807Z,95232.88
2023-04-12T11:30:58.161Z,95230.63
2023-04-12T11:33:51.026Z,95211.44
2023-04-12T11:36:17.708Z,95204.56
2023-04-12T11:38:46.290Z,95187.66
2023-04-12T11:41:14.740Z,95177.56
2023-04-12T11:43:41.430Z,95175.22
2023-04-12T11:46:08.147Z,95180.50
2023-04-12T11:48:35.149Z,95163.63
2023-04-12T11:51:11.068Z,95163.84
2023-04-12T11:53:38.185Z,95154.63
2023-04-12T11:56:04.794Z,95140.50
2023-04-12T11:58:31.341Z,95124.97
2023-04-12T12:00:58.699Z,95121.69
2023-04-12T12:03:25.605Z,95119.63
2023-04-12T12:05:52.553Z,95118.63
2023-04-12T12:08:19.839Z,95106.63
2023-04-12T12:13:18.753Z,95099.66
2023-04-12T12:15:45.919Z,95097.44
2023-04-12T12:18:12.470Z,95093.31
2023-04-12T12:20:56.959Z,95089.47
2023-04-12T12:23:32.943Z,95087.09
2023-04-12T12:26:19.161Z,95070.81
2023-04-12T12:28:49.592Z,95072.69
2023-04-12T12:31:18.851Z,95063.88
2023-04-12T12:34:00.319Z,95066.47
2023-04-12T12:36:33.840Z,95061.63
2023-04-12T12:39:07.280Z,95055.06
2023-04-12T12:41:34.396Z,95060.75
2023-04-12T12:44:00.886Z,95057.47
2023-04-12T12:46:37.256Z,95060.88
2023-04-12T12:49:13.837Z,95056.44
2023-04-12T12:51:41.496Z,95065.91
2023-04-12T12:54:08.048Z,95065.78
2023-04-12T12:56:35.916Z,95058.31
2023-04-12T12:59:02.442Z,95048.03
2023-04-12T13:01:29.046Z,95039.38
2023-04-12T13:03:55.818Z,95039.22
2023-04-12T13:06:23.107Z,95034.94
2023-04-12T13:08:49.559Z,95025.19
2023-04-12T13:11:17.180Z,95017.31
2023-04-12T13:13:44.828Z,95026.19
2023-04-12T13:16:11.612Z,95017.28
2023-04-12T13:18:38.265Z,95014.38
2023-04-12T13:21:04.836Z,95006.63
2023-04-12T13:23:31.316Z,95007.19
2023-04-12T13:25:57.749Z,95006.25
2023-04-12T13:28:24.240Z,95003.31
2023-04-12T13:30:50.825Z,94998.19
2023-04-12T13:33:21.034Z,94997.19
2023-04-12T13:35:48.468Z,94992.19
2023-04-12T13:38:14.951Z,94987.25
2023-04-12T13:40:41.593Z,94979.91
2023-04-12T13:43:08.757Z,94979.25
2023-04-12T13:45:36.010Z,94980.72
2023-04-12T13:48:02.633Z,94982.25
2023-04-12T13:50:29.237Z,94967.91
2023-04-12T13:52:55.729Z,94974.09
2023-04-12T13:55:22.285Z,94965.50
2023-04-12T13:57:48.776Z,94966.38
2023-04-12T14:00:15.635Z,94974.72
2023-04-12T14:02:42.270Z,94976.19
2023-04-12T14:05:09.011Z,94970.97
2023-04-12T14:07:35.804Z,94974.19
2023-04-12T14:10:02.351Z,94973.41
2023-04-12T14:12:28.871Z,94965.09
2023-04-12T14:14:55.406Z,94970.69
2023-04-12T14:17:22.009Z,94981.38
2023-04-12T14:19:48.585Z,94977.75
2023-04-12T14:22:15.069Z,94974.38
2023-04-12T14:24:41.721Z,94976.53
2023-04-12T14:27:08.615Z,94993.63
2023-04-12T14:29:35.108Z,94989.00
2023-04-12T14:32:01.615Z,94986.84
2023-04-12T14:34:28.200Z,94980.53
2023-04-12T14:36:56.376Z,94982.53
2023-04-12T14:39:24.296Z,94972.59
2023-04-12T14:41:50.806Z,94973.31
2023-04-12T14:44:19.609Z,94965.38
2023-04-12T14:46:47.060Z,94978.94
2023-04-12T14:49:14.365Z,94967.19
2023-04-12T14:51:41.215Z,94971.84
2023-04-12T14:54:07.700Z,94952.53
2023-04-12T14:56:42.581Z,94964.16
2023-04-12T14:59:11.606Z,94951.41
2023-04-12T15:01:38.097Z,94949.75
2023-04-12T15:04:06.896Z,94958.47
2023-04-12T15:06:42.350Z,94950.94
2023-04-12T15:09:09.863Z,94955.94
2023-04-12T15:11:36.611Z,94947.47
2023-04-12T15:14:04.282Z,94943.13
2023-04-12T15:16:30.798Z,94950.75
2023-04-12T15:18:59.911Z,94942.38
2023-04-12T15:21:28.847Z,94943.78
2023-04-12T15:23:56.375Z,94941.00
2023-04-12T15:26:23.045Z,94935.38
2023-04-12T15:28:49.486Z,94935.94
2023-04-12T15:31:16.113Z,94945.72
2023-04-12T15:33:42.641Z,94947.34
2023-04-12T15:36:09.229Z,94946.75
2023-04-12T15:38:40.395Z,94932.28
2023-04-12T15:41:06.972Z,94935.47
2023-04-12T15:43:33.576Z,94936.00
2023-04-12T15:46:01.551Z,94936.69
2023-04-12T15:48:28.188Z,94931.88
2023-04-12T15:50:57.510Z,94922.69
2023-04-12T15:53:25.047Z,94922.25
2023-04-12T15:55:55.070Z,94915.28
2023-04-12T15:58:22.744Z,94917.38
2023-04-12T16:00:49.891Z,94903.63
2023-04-12T16:03:19.558Z,94902.13
2023-04-12T16:05:47.034Z,94908.31
2023-04-12T16:08:13.510Z,94912.25
2023-04-12T16:10:40.389Z,94913.47
2023-04-12T16:13:06.963Z,94909.66
2023-04-12T16:15:34.643Z,94915.22
2023-04-12T16:18:01.155Z,94912.97
2023-04-12T16:20:27.796Z,94918.69
2023-04-12T16:22:54.635Z,94909.13
2023-04-12T16:25:22.426Z,94912.31
2023-04-12T16:27:48.956Z,94900.81
2023-04-12T16:30:15.922Z,94903.59
2023-04-12T16:32:44.464Z,94903.44
2023-04-12T16:35:11.158Z,94905.28
2023-04-12T16:37:37.969Z,94907.50
2023-04-12T16:40:08.475Z,94889.28
2023-04-12T16:42:34.983Z,94883.28
2023-04-12T16:45:01.712Z,94883.28
2023-04-12T16:47:28.269Z,94880.28
2023-04-12T16:49:54.832Z,94873.63
2023-04-12T16:52:21.680Z,94864.38
2023-04-12T16:54:48.148Z,94859.53
2023-04-12T16:57:15.566Z,94863.00
2023-04-12T16:59:42.555Z,94855.16
2023-04-12T17:02:09.073Z,94866.19
2023-04-12T17:04:35.670Z,94876.88
2023-04-12T17:07:02.511Z,94864.41
2023-04-12T17:09:29.170Z,94860.69
2023-04-12T17:11:56.650Z,94847.56
2023-04-12T17:14:23.141Z,94844.03
2023-04-12T17:16:49.635Z,94850.28
2023-04-12T17:19:16.131Z,94847.47
2023-04-12T17:21:42.729Z,94857.47
2023-04-12T17:24:09.411Z,94853.63
2023-04-12T17:26:37.280Z,94857.88
2023-04-12T17:29:04.152Z,94852.41
2023-04-12T17:34:05.341Z,94851.34
2023-04-12T17:36:33.949Z,94855.22
2023-04-12T17:39:01.833Z,94858.56
2023-04-12T17:41:28.504Z,94852.19
2023-04-12T17:43:55.059Z,94860.53
2023-04-12T17:46:21.748Z,94857.47
2023-04-12T17:48:48.317Z,94851.81
2023-04-12T17:51:16.139Z,94852.59
2023-04-12T17:53:42.739Z,94851.22
2023-04-12T17:56:09.918Z,94843.38
2023-04-12T17:58:36.479Z,94856.69
2023-04-12T18:01:03.063Z,94854.16
2023-04-12T18:03:29.718Z,94854.38
2023-04-12T18:05:58.943Z,94860.94
2023-04-12T18:08:25.427Z,94865.44
2023-04-12T18:10:52.454Z,94862.97
2023-04-12T18:13:19.254Z,94853.94
2023-04-12T18:15:45.753Z,94858.69
2023-04-12T18:18:12.484Z,94865.53
2023-04-12T18:20:39.054Z,94858.69
2023-04-12T18:23:05.542Z,94860.75
2023-04-12T18:25:32.311Z,94857.72
2023-04-12T18:27:59.152Z,94852.69
2023-04-12T18:30:25.683Z,94861.16
2023-04-12T18:32:52.399Z,94855.88
2023-04-12T18:35:18.953Z,94846.22
2023-04-12T18:37:45.721Z,94850.13
2023-04-12T18:40:13.293Z,94849.25
2023-04-12T18:42:39.797Z,94843.59
2023-04-12T18:45:06.656Z,94834.88
2023-04-12T18:47:33.333Z,94836.19
2023-04-12T18:49:59.904Z,94848.25
2023-04-12T18:52:26.638Z,94851.09
2023-04-12T18:54:53.180Z,94860.38
2023-04-12T18:57:19.731Z,94860.53
2023-04-12T18:59:47.979Z,94862.09
2023-04-12T19:02:15.199Z,94857.88
2023-04-12T19:04:42.135Z,94854.47
2023-04-12T19:07:08.659Z,94844.56
2023-04-12T19:09:35.170Z,94854.66
2023-04-12T19:12:03.003Z,94855.25
2023-04-12T19:14:30.676Z,94846.00
2023-04-12T19:16:57.499Z,94850.84
2023-04-12T19:19:23.984Z,94842.63
2023-04-12T19:21:50.679Z,94848.84
2023-04-12T19:24:17.486Z,94842.50
2023-04-12T19:26:47.311Z,94849.41
2023-04-12T19:29:15.932Z,94851.41
2023-04-12T19:31:43.797Z,94849.00
2023-04-12T19:34:11.772Z,94841.31
2023-04-12T19:36:38.267Z,94842.97
2023-04-12T19:39:04.803Z,94845.53
2023-04-12T19:41:31.477Z,94846.94
2023-04-12T19:43:58.240Z,94842.72
2023-04-12T19:46:25.112Z,94843.47
2023-04-12T19:48:52.343Z,94845.91
2023-04-12T19:51:19.620Z,94844.53
2023-04-12T19:53:49.204Z,94848.97
2023-04-12T19:56:15.732Z,94861.19
2023-04-12T19:58:42.308Z,94858.44
2023-04-12T20:01:09.926Z,94863.06
2023-04-12T20:03:37.655Z,94857.09
2023-04-12T20:06:05.341Z,94861.63
2023-04-12T20:08:32.169Z,94856.16
2023-04-12T20:10:59.066Z,94859.25
2023-04-12T20:13:26.011Z,94861.97
2023-04-12T20:15:52.679Z,94857.66
2023-04-12T20:18:19.174Z,94851.72
2023-04-12T20:20:45.804Z,94853.88
2023-04-12T20:23:12.724Z,94858.59
2023-04-12T20:25:41.582Z,94860.50
2023-04-12T20:28:09.226Z,94876.00
2023-04-12T20:30:40.122Z,94871.72
2023-04-12T20:33:07.087Z,94869.16
2023-04-12T20:35:33.706Z,94871.03
2023-04-12T20:38:00.418Z,94872.56
2023-04-12T20:40:29.823Z,94870.72
2023-04-12T20:42:56.914Z,94873.75
2023-04-12T20:45:23.587Z,94873.09
2023-04-12T20:47:50.172Z,94869.72
2023-04-12T20:50:17.613Z,94868.44
2023-04-12T20:52:45.536Z,94878.88
2023-04-12T20:55:14.174Z,94888.78
2023-04-12T20:57:40.881Z,94894.84
2023-04-12T21:00:17.479Z,94901.13
2023-04-12T21:02:45.535Z,94904.50
2023-04-12T21:05:12.755Z,94907.88
2023-04-12T21:07:41.409Z,94899.19
2023-04-12T21:10:12.210Z,94912.91
2023-04-12T21:12:42.680Z,94923.69
2023-04-12T21:15:10.346Z,94945.66
2023-04-12T21:17:37.318Z,94951.75
2023-04-12T21:20:09.632Z,94954.97
2023-04-12T21:22:36.312Z,94973.44
2023-04-12T21:25:02.828Z,94979.91
2023-04-12T21:27:29.296Z,94984.44
2023-04-12T21:29:55.794Z,94986.47
2023-04-12T21:32:22.297Z,94994.22
2023-04-12T21:34:50.165Z,95000.44
2023-04-12T21:37:16.914Z,95003.56
2023-04-12T21:39:43.741Z,95001.69
2023-04-12T21:42:10.230Z,95008.66
2023-04-12T21:44:37.330Z,94996.69
2023-04-12T21:47:03.864Z,95008.38
2023-04-12T21:49:30.795Z,95016.56
2023-04-12T21:51:59.181Z,95017.78
2023-04-12T21:54:28.915Z,95019.41
2023-04-12T21:56:56.177Z,95019.13
2023-04-12T21:59:22.745Z,95025.78
2023-04-12T22:01:49.312Z,95026.13
2023-04-12T22:04:16.306Z,95029.91
2023-04-12T22:06:44.599Z,95032.91
2023-04-12T22:09:11.126Z,95037.34
2023-04-12T22:11:37.635Z,95037.94
2023-04-12T22:14:04.214Z,95044.53
2023-04-12T22:16:31.277Z,95044.22
2023-04-12T22:18:59.476Z,95047.03
2023-04-12T22:21:28.296Z,95043.09
2023-04-12T22:23:55.247Z,95048.13
2023-04-12T22:26:21.741Z,95060.19
2023-04-12T22:28:49.748Z,95049.59
2023-04-12T22:31:16.544Z,95049.22
2023-04-12T22:33:43.832Z,95048.44
2023-04-12T22:36:10.460Z,95050.31
2023-04-12T22:38:37.544Z,95050.94
2023-04-12T22:41:04.177Z,95050.59
2023-04-12T22:43:38.087Z,95049.59
2023-04-12T22:46:05.971Z,95050.69
2023-04-12T22:48:32.564Z,95046.94
2023-04-12T22:51:00.465Z,95065.34
2023-04-12T22:53:27.324Z,95067.66
2023-04-12T22:55:55.440Z,95071.31
2023-04-12T22:58:22.082Z,95069.59
2023-04-12T23:00:51.570Z,95070.66
2023-04-12T23:03:18.501Z,95077.47
2023-04-12T23:05:45.964Z,95074.47
2023-04-12T23:08:15.303Z,95066.78
2023-04-12T23:10:44.741Z,95069.31
2023-04-12T23:13:11.733Z,95074.22
2023-04-12T23:15:40.651Z,95072.78
2023-04-12T23:18:10.765Z,95075.47
2023-04-12T23:20:38.049Z,95073.69
2023-04-12T23:23:04.608Z,95065.19
2023-04-12T23:25:41.794Z,95064.06
2023-04-12T23:28:15.512Z,95063.91
2023-04-12T23:30:43.085Z,95068.69
2023-04-12T23:33:12.248Z,95072.50
2023-04-12T23:35:39.397Z,95080.38
2023-04-12T23:38:05.879Z,95078.03
2023-04-12T23:40:32.965Z,95071.84
2023-04-12T23:42:59.452Z,95076.59
2023-04-12T23:45:25.939Z,95085.59
2023-04-12T23:47:52.575Z,95084.78
2023-04-12T23:50:19.439Z,95081.16
2023-04-12T23:52:45.930Z,95088.41
2023-04-12T23:55:12.838Z,95079.09
2023-04-12T23:57:39.396Z,95087.53
